sensor_id;sensor_type;location;lat;lon;timestamp;temperature;humidity
44817;DHT22;30529;53.570;9.964;2022-10-26T00:01:11;11.60;99.90
44817;DHT22;30529;53.570;9.964;2022-10-26T00:03:44;11.60;99.90
44817;DHT22;30529;53.570;9.964;2022-10-26T00:06:16;11.60;99.90
44817;DHT22;30529;53.570;9.964;2022-10-26T00:08:47;11.60;99.90
44817;DHT22;30529;53.570;9.964;2022-10-26T00:11:14;11.50;99.90
44817;DHT22;30529;53.570;9.964;2022-10-26T00:13:40;11.50;99.90
44817;DHT22;30529;53.570;9.964;2022-10-26T00:16:21;11.50;99.90
44817;DHT22;30529;53.570;9.964;2022-10-26T00:18:49;11.50;99.90
44817;DHT22;30529;53.570;9.964;2022-10-26T00:21:15;11.50;99.90
44817;DHT22;30529;53.570;9.964;2022-10-26T00:23:42;11.50;99.90
44817;DHT22;30529;53.570;9.964;2022-10-26T00:26:08;11.40;99.90
44817;DHT22;30529;53.570;9.964;2022-10-26T00:28:35;11.40;99.90
44817;DHT22;30529;53.570;9.964;2022-10-26T00:31:02;11.40;99.90
44817;DHT22;30529;53.570;9.964;2022-10-26T00:33:30;11.40;99.90
44817;DHT22;30529;53.570;9.964;2022-10-26T00:35:56;11.40;99.90
44817;DHT22;30529;53.570;9.964;2022-10-26T00:38:22;11.40;99.90
44817;DHT22;30529;53.570;9.964;2022-10-26T00:40:51;11.30;99.90
44817;DHT22;30529;53.570;9.964;2022-10-26T00:45:48;11.30;99.90
44817;DHT22;30529;53.570;9.964;2022-10-26T00:48:21;11.30;99.90
44817;DHT22;30529;53.570;9.964;2022-10-26T00:50:50;11.30;99.90
44817;DHT22;30529;53.570;9.964;2022-10-26T00:53:18;11.30;99.90
44817;DHT22;30529;53.570;9.964;2022-10-26T00:55:47;11.20;99.90
44817;DHT22;30529;53.570;9.964;2022-10-26T00:58:15;11.20;99.90
44817;DHT22;30529;53.570;9.964;2022-10-26T01:00:42;11.20;99.90
44817;DHT22;30529;53.570;9.964;2022-10-26T01:03:09;11.20;99.90
44817;DHT22;30529;53.570;9.964;2022-10-26T01:08:27;11.20;99.90
44817;DHT22;30529;53.570;9.964;2022-10-26T01:10:56;11.10;99.90
44817;DHT22;30529;53.570;9.964;2022-10-26T01:13:25;11.10;99.90
44817;DHT22;30529;53.570;9.964;2022-10-26T01:16:15;11.10;99.90
44817;DHT22;30529;53.570;9.964;2022-10-26T01:27:42;11.10;99.90
44817;DHT22;30529;53.570;9.964;2022-10-26T01:33:14;11.10;99.90
44817;DHT22;30529;53.570;9.964;2022-10-26T01:36:08;11.10;99.90
44817;DHT22;30529;53.570;9.964;2022-10-26T01:41:36;11.00;99.90
44817;DHT22;30529;53.570;9.964;2022-10-26T01:45:11;11.00;99.90
44817;DHT22;30529;53.570;9.964;2022-10-26T01:47:13;11.00;99.90
44817;DHT22;30529;53.570;9.964;2022-10-26T01:49:43;11.00;99.90
44817;DHT22;30529;53.570;9.964;2022-10-26T01:52:11;11.00;99.90
44817;DHT22;30529;53.570;9.964;2022-10-26T01:54:38;11.00;99.90
44817;DHT22;30529;53.570;9.964;2022-10-26T01:57:10;10.90;99.90
44817;DHT22;30529;53.570;9.964;2022-10-26T02:05:23;10.90;99.90
44817;DHT22;30529;53.570;9.964;2022-10-26T02:07:51;10.90;99.90
44817;DHT22;30529;53.570;9.964;2022-10-26T02:10:33;10.90;99.90
44817;DHT22;30529;53.570;9.964;2022-10-26T02:19:06;10.90;99.90
44817;DHT22;30529;53.570;9.964;2022-10-26T02:21:42;10.90;99.90
44817;DHT22;30529;53.570;9.964;2022-10-26T02:24:11;10.90;99.90
44817;DHT22;30529;53.570;9.964;2022-10-26T02:26:40;10.80;99.90
44817;DHT22;30529;53.570;9.964;2022-10-26T02:29:11;10.80;99.90
44817;DHT22;30529;53.570;9.964;2022-10-26T02:31:39;10.80;99.90
44817;DHT22;30529;53.570;9.964;2022-10-26T02:34:09;10.80;99.90
44817;DHT22;30529;53.570;9.964;2022-10-26T02:36:40;10.80;99.90
44817;DHT22;30529;53.570;9.964;2022-10-26T02:39:09;10.80;99.90
44817;DHT22;30529;53.570;9.964;2022-10-26T02:41:38;10.80;99.90
44817;DHT22;30529;53.570;9.964;2022-10-26T02:44:28;10.80;99.90
44817;DHT22;30529;53.570;9.964;2022-10-26T02:46:55;10.80;99.90
44817;DHT22;30529;53.570;9.964;2022-10-26T02:49:22;10.70;99.90
44817;DHT22;30529;53.570;9.964;2022-10-26T02:52:01;10.70;99.90
44817;DHT22;30529;53.570;9.964;2022-10-26T02:57:14;10.70;99.90
44817;DHT22;30529;53.570;9.964;2022-10-26T02:59:43;10.70;99.90
44817;DHT22;30529;53.570;9.964;2022-10-26T03:02:15;10.70;99.90
44817;DHT22;30529;53.570;9.964;2022-10-26T03:04:42;10.60;99.90
44817;DHT22;30529;53.570;9.964;2022-10-26T03:07:08;10.70;99.90
44817;DHT22;30529;53.570;9.964;2022-10-26T03:09:34;10.60;99.90
44817;DHT22;30529;53.570;9.964;2022-10-26T03:12:00;10.70;99.90
44817;DHT22;30529;53.570;9.964;2022-10-26T03:14:26;10.60;99.90
44817;DHT22;30529;53.570;9.964;2022-10-26T03:16:53;10.60;99.90
44817;DHT22;30529;53.570;9.964;2022-10-26T03:19:19;10.60;99.90
44817;DHT22;30529;53.570;9.964;2022-10-26T03:21:45;10.60;99.90
44817;DHT22;30529;53.570;9.964;2022-10-26T03:24:11;10.60;99.90
44817;DHT22;30529;53.570;9.964;2022-10-26T03:26:37;10.60;99.90
44817;DHT22;30529;53.570;9.964;2022-10-26T03:29:03;10.50;99.90
44817;DHT22;30529;53.570;9.964;2022-10-26T03:31:30;10.50;99.90
44817;DHT22;30529;53.570;9.964;2022-10-26T03:33:56;10.50;99.90
44817;DHT22;30529;53.570;9.964;2022-10-26T03:36:22;10.50;99.90
44817;DHT22;30529;53.570;9.964;2022-10-26T03:38:48;10.50;99.90
44817;DHT22;30529;53.570;9.964;2022-10-26T03:41:14;10.50;99.90
44817;DHT22;30529;53.570;9.964;2022-10-26T03:43:40;10.50;99.90
44817;DHT22;30529;53.570;9.964;2022-10-26T03:46:06;10.50;99.90
44817;DHT22;30529;53.570;9.964;2022-10-26T03:48:33;10.50;99.90
44817;DHT22;30529;53.570;9.964;2022-10-26T03:50:59;10.50;99.90
44817;DHT22;30529;53.570;9.964;2022-10-26T03:53:25;10.50;99.90
44817;DHT22;30529;53.570;9.964;2022-10-26T03:55:51;10.50;99.90
44817;DHT22;30529;53.570;9.964;2022-10-26T03:58:18;10.50;99.90
44817;DHT22;30529;53.570;9.964;2022-10-26T04:00:44;10.50;99.90
44817;DHT22;30529;53.570;9.964;2022-10-26T04:03:10;10.50;99.90
44817;DHT22;30529;53.570;9.964;2022-10-26T04:05:40;10.50;99.90
44817;DHT22;30529;53.570;9.964;2022-10-26T04:08:07;10.50;99.90
44817;DHT22;30529;53.570;9.964;2022-10-26T04:10:33;10.50;99.90
44817;DHT22;30529;53.570;9.964;2022-10-26T04:12:59;10.50;99.90
44817;DHT22;30529;53.570;9.964;2022-10-26T04:15:26;10.40;99.90
44817;DHT22;30529;53.570;9.964;2022-10-26T04:18:00;10.40;99.90
44817;DHT22;30529;53.570;9.964;2022-10-26T04:20:27;10.40;99.90
44817;DHT22;30529;53.570;9.964;2022-10-26T04:22:58;10.40;99.90
44817;DHT22;30529;53.570;9.964;2022-10-26T04:25:24;10.40;99.90
44817;DHT22;30529;53.570;9.964;2022-10-26T04:27:51;10.40;99.90
44817;DHT22;30529;53.570;9.964;2022-10-26T04:30:18;10.40;99.90
44817;DHT22;30529;53.570;9.964;2022-10-26T04:32:44;10.40;99.90
44817;DHT22;30529;53.570;9.964;2022-10-26T04:35:10;10.40;99.90
44817;DHT22;30529;53.570;9.964;2022-10-26T04:37:36;10.40;99.90
44817;DHT22;30529;53.570;9.964;2022-10-26T04:40:03;10.30;99.90
44817;DHT22;30529;53.570;9.964;2022-10-26T04:42:29;10.30;99.90
44817;DHT22;30529;53.570;9.964;2022-10-26T04:44:59;10.40;99.90
44817;DHT22;30529;53.570;9.964;2022-10-26T04:47:25;10.30;99.90
44817;DHT22;30529;53.570;9.964;2022-10-26T04:49:51;10.30;99.90
44817;DHT22;30529;53.570;9.964;2022-10-26T04:52:17;10.30;99.90
44817;DHT22;30529;53.570;9.964;2022-10-26T04:54:43;10.30;99.90
44817;DHT22;30529;53.570;9.964;2022-10-26T04:57:09;10.30;99.90
44817;DHT22;30529;53.570;9.964;2022-10-26T04:59:35;10.30;99.90
44817;DHT22;30529;53.570;9.964;2022-10-26T05:02:01;10.30;99.90
44817;DHT22;30529;53.570;9.964;2022-10-26T05:04:27;10.30;99.90
44817;DHT22;30529;53.570;9.964;2022-10-26T05:06:53;10.30;99.90
44817;DHT22;30529;53.570;9.964;2022-10-26T05:09:20;10.30;99.90
44817;DHT22;30529;53.570;9.964;2022-10-26T05:11:46;10.30;99.90
44817;DHT22;30529;53.570;9.964;2022-10-26T05:14:12;10.30;99.90
44817;DHT22;30529;53.570;9.964;2022-10-26T05:16:38;10.30;99.90
44817;DHT22;30529;53.570;9.964;2022-10-26T05:19:04;10.30;99.90
44817;DHT22;30529;53.570;9.964;2022-10-26T05:21:30;10.30;99.90
44817;DHT22;30529;53.570;9.964;2022-10-26T05:23:56;10.30;99.90
44817;DHT22;30529;53.570;9.964;2022-10-26T05:26:23;10.30;99.90
44817;DHT22;30529;53.570;9.964;2022-10-26T05:28:50;10.30;99.90
44817;DHT22;30529;53.570;9.964;2022-10-26T05:31:17;10.20;99.90
44817;DHT22;30529;53.570;9.964;2022-10-26T05:33:43;10.20;99.90
44817;DHT22;30529;53.570;9.964;2022-10-26T05:36:09;10.20;99.90
44817;DHT22;30529;53.570;9.964;2022-10-26T05:38:35;10.20;99.90
44817;DHT22;30529;53.570;9.964;2022-10-26T05:41:01;10.20;99.90
44817;DHT22;30529;53.570;9.964;2022-10-26T05:43:27;10.20;99.90
44817;DHT22;30529;53.570;9.964;2022-10-26T05:45:53;10.20;99.90
44817;DHT22;30529;53.570;9.964;2022-10-26T05:48:20;10.20;99.90
44817;DHT22;30529;53.570;9.964;2022-10-26T05:50:47;10.20;99.90
44817;DHT22;30529;53.570;9.964;2022-10-26T05:53:13;10.10;99.90
44817;DHT22;30529;53.570;9.964;2022-10-26T05:55:39;10.10;99.90
44817;DHT22;30529;53.570;9.964;2022-10-26T05:58:10;10.10;99.90
44817;DHT22;30529;53.570;9.964;2022-10-26T06:03:50;10.00;99.90
44817;DHT22;30529;53.570;9.964;2022-10-26T06:06:18;10.10;99.90
44817;DHT22;30529;53.570;9.964;2022-10-26T06:08:44;10.10;99.90
44817;DHT22;30529;53.570;9.964;2022-10-26T06:11:11;10.20;99.90
44817;DHT22;30529;53.570;9.964;2022-10-26T06:13:37;10.20;99.90
44817;DHT22;30529;53.570;9.964;2022-10-26T06:27:30;10.40;99.90
44817;DHT22;30529;53.570;9.964;2022-10-26T06:30:07;10.40;99.90
44817;DHT22;30529;53.570;9.964;2022-10-26T06:32:43;10.30;99.90
44817;DHT22;30529;53.570;9.964;2022-10-26T06:37:59;10.30;99.90
44817;DHT22;30529;53.570;9.964;2022-10-26T06:40:31;10.30;99.90
44817;DHT22;30529;53.570;9.964;2022-10-26T06:42:59;10.30;99.90
44817;DHT22;30529;53.570;9.964;2022-10-26T06:45:25;10.30;99.90
44817;DHT22;30529;53.570;9.964;2022-10-26T06:48:02;10.30;99.90
44817;DHT22;30529;53.570;9.964;2022-10-26T06:50:41;10.20;99.90
44817;DHT22;30529;53.570;9.964;2022-10-26T06:53:26;10.20;99.90
44817;DHT22;30529;53.570;9.964;2022-10-26T06:55:56;10.20;99.90
44817;DHT22;30529;53.570;9.964;2022-10-26T06:58:26;10.30;99.90
44817;DHT22;30529;53.570;9.964;2022-10-26T07:00:54;10.30;99.90
44817;DHT22;30529;53.570;9.964;2022-10-26T07:03:21;10.30;99.90
44817;DHT22;30529;53.570;9.964;2022-10-26T07:05:48;10.40;99.90
44817;DHT22;30529;53.570;9.964;2022-10-26T07:08:14;10.40;99.90
44817;DHT22;30529;53.570;9.964;2022-10-26T07:10:40;10.40;99.90
44817;DHT22;30529;53.570;9.964;2022-10-26T07:13:09;10.50;99.90
44817;DHT22;30529;53.570;9.964;2022-10-26T07:15:36;10.50;99.90
44817;DHT22;30529;53.570;9.964;2022-10-26T07:18:04;10.50;99.90
44817;DHT22;30529;53.570;9.964;2022-10-26T07:20:40;10.50;99.90
44817;DHT22;30529;53.570;9.964;2022-10-26T07:23:08;10.60;99.90
44817;DHT22;30529;53.570;9.964;2022-10-26T07:25:38;10.60;99.90
44817;DHT22;30529;53.570;9.964;2022-10-26T07:28:06;10.60;99.90
44817;DHT22;30529;53.570;9.964;2022-10-26T07:30:33;10.70;99.90
44817;DHT22;30529;53.570;9.964;2022-10-26T07:33:01;10.70;99.90
44817;DHT22;30529;53.570;9.964;2022-10-26T07:35:28;10.70;99.90
44817;DHT22;30529;53.570;9.964;2022-10-26T07:37:58;10.80;99.90
44817;DHT22;30529;53.570;9.964;2022-10-26T07:40:25;10.80;99.90
44817;DHT22;30529;53.570;9.964;2022-10-26T07:42:51;10.90;99.90
44817;DHT22;30529;53.570;9.964;2022-10-26T07:45:22;10.90;99.90
44817;DHT22;30529;53.570;9.964;2022-10-26T07:47:49;10.90;99.90
44817;DHT22;30529;53.570;9.964;2022-10-26T07:50:15;10.90;99.90
44817;DHT22;30529;53.570;9.964;2022-10-26T07:52:41;10.90;99.90
44817;DHT22;30529;53.570;9.964;2022-10-26T07:55:10;10.90;99.90
44817;DHT22;30529;53.570;9.964;2022-10-26T07:57:37;11.00;99.90
44817;DHT22;30529;53.570;9.964;2022-10-26T08:00:05;10.90;99.90
44817;DHT22;30529;53.570;9.964;2022-10-26T08:02:35;11.00;99.90
44817;DHT22;30529;53.570;9.964;2022-10-26T08:05:01;11.00;99.90
44817;DHT22;30529;53.570;9.964;2022-10-26T08:07:31;11.00;99.90
44817;DHT22;30529;53.570;9.964;2022-10-26T08:09:57;11.00;99.90
44817;DHT22;30529;53.570;9.964;2022-10-26T08:12:23;11.10;99.90
44817;DHT22;30529;53.570;9.964;2022-10-26T08:14:50;11.10;99.90
44817;DHT22;30529;53.570;9.964;2022-10-26T08:17:16;11.20;99.90
44817;DHT22;30529;53.570;9.964;2022-10-26T08:19:42;11.20;99.90
44817;DHT22;30529;53.570;9.964;2022-10-26T08:22:08;11.20;99.90
44817;DHT22;30529;53.570;9.964;2022-10-26T08:24:34;11.30;99.90
44817;DHT22;30529;53.570;9.964;2022-10-26T08:27:01;11.40;99.90
44817;DHT22;30529;53.570;9.964;2022-10-26T08:29:27;11.40;99.90
44817;DHT22;30529;53.570;9.964;2022-10-26T08:31:53;11.40;99.90
44817;DHT22;30529;53.570;9.964;2022-10-26T08:34:19;11.50;99.90
44817;DHT22;30529;53.570;9.964;2022-10-26T08:36:48;11.50;99.90
44817;DHT22;30529;53.570;9.964;2022-10-26T08:39:15;11.50;99.90
44817;DHT22;30529;53.570;9.964;2022-10-26T08:41:44;11.60;99.90
44817;DHT22;30529;53.570;9.964;2022-10-26T08:44:28;11.60;99.90
44817;DHT22;30529;53.570;9.964;2022-10-26T08:47:12;11.70;99.90
44817;DHT22;30529;53.570;9.964;2022-10-26T08:50:09;11.70;99.90
44817;DHT22;30529;53.570;9.964;2022-10-26T08:52:59;11.80;99.90
44817;DHT22;30529;53.570;9.964;2022-10-26T08:55:46;11.80;99.90
44817;DHT22;30529;53.570;9.964;2022-10-26T08:58:18;11.80;99.90
44817;DHT22;30529;53.570;9.964;2022-10-26T09:00:46;11.90;99.90
44817;DHT22;30529;53.570;9.964;2022-10-26T09:03:14;11.90;99.90
44817;DHT22;30529;53.570;9.964;2022-10-26T09:08:36;12.00;99.90
44817;DHT22;30529;53.570;9.964;2022-10-26T09:14:02;12.00;99.90
44817;DHT22;30529;53.570;9.964;2022-10-26T09:16:50;12.00;99.90
44817;DHT22;30529;53.570;9.964;2022-10-26T09:23:00;12.10;99.90
44817;DHT22;30529;53.570;9.964;2022-10-26T09:25:38;12.10;99.90
44817;DHT22;30529;53.570;9.964;2022-10-26T09:28:06;12.20;99.90
44817;DHT22;30529;53.570;9.964;2022-10-26T09:30:37;12.20;99.90
44817;DHT22;30529;53.570;9.964;2022-10-26T09:33:18;12.20;99.90
44817;DHT22;30529;53.570;9.964;2022-10-26T09:35:58;12.20;99.90
44817;DHT22;30529;53.570;9.964;2022-10-26T09:38:31;12.30;99.90
44817;DHT22;30529;53.570;9.964;2022-10-26T09:46:19;12.40;99.90
44817;DHT22;30529;53.570;9.964;2022-10-26T09:48:51;12.50;99.90
44817;DHT22;30529;53.570;9.964;2022-10-26T09:51:18;12.50;99.90
44817;DHT22;30529;53.570;9.964;2022-10-26T09:53:46;12.60;99.90
44817;DHT22;30529;53.570;9.964;2022-10-26T09:56:14;12.60;99.90
44817;DHT22;30529;53.570;9.964;2022-10-26T10:01:31;12.70;99.90
44817;DHT22;30529;53.570;9.964;2022-10-26T10:06:46;12.80;99.90
44817;DHT22;30529;53.570;9.964;2022-10-26T10:09:21;12.90;99.90
44817;DHT22;30529;53.570;9.964;2022-10-26T10:11:51;13.00;99.90
44817;DHT22;30529;53.570;9.964;2022-10-26T10:17:00;13.00;99.90
44817;DHT22;30529;53.570;9.964;2022-10-26T10:21:58;13.10;99.90
44817;DHT22;30529;53.570;9.964;2022-10-26T10:24:35;13.10;99.90
44817;DHT22;30529;53.570;9.964;2022-10-26T10:27:14;13.20;99.90
44817;DHT22;30529;53.570;9.964;2022-10-26T10:29:44;13.20;99.90
44817;DHT22;30529;53.570;9.964;2022-10-26T10:34:51;13.30;99.90
44817;DHT22;30529;53.570;9.964;2022-10-26T10:37:22;13.30;99.90
44817;DHT22;30529;53.570;9.964;2022-10-26T10:39:49;13.40;99.90
44817;DHT22;30529;53.570;9.964;2022-10-26T10:42:26;13.30;99.90
44817;DHT22;30529;53.570;9.964;2022-10-26T10:44:55;13.40;99.90
44817;DHT22;30529;53.570;9.964;2022-10-26T10:47:24;13.50;99.90
44817;DHT22;30529;53.570;9.964;2022-10-26T10:49:59;13.50;99.90
44817;DHT22;30529;53.570;9.964;2022-10-26T10:52:31;13.50;99.90
44817;DHT22;30529;53.570;9.964;2022-10-26T11:00:27;13.60;99.90
44817;DHT22;30529;53.570;9.964;2022-10-26T11:08:43;13.80;99.90
44817;DHT22;30529;53.570;9.964;2022-10-26T11:14:04;13.90;99.90
44817;DHT22;30529;53.570;9.964;2022-10-26T11:16:38;13.90;99.90
44817;DHT22;30529;53.570;9.964;2022-10-26T11:19:25;13.90;99.90
44817;DHT22;30529;53.570;9.964;2022-10-26T11:21:53;14.00;99.90
44817;DHT22;30529;53.570;9.964;2022-10-26T11:24:38;14.00;99.90
44817;DHT22;30529;53.570;9.964;2022-10-26T11:27:17;14.10;99.90
44817;DHT22;30529;53.570;9.964;2022-10-26T11:30:02;14.10;99.90
44817;DHT22;30529;53.570;9.964;2022-10-26T11:33:08;14.10;99.90
44817;DHT22;30529;53.570;9.964;2022-10-26T11:43:46;14.20;99.90
44817;DHT22;30529;53.570;9.964;2022-10-26T11:46:19;14.20;99.90
44817;DHT22;30529;53.570;9.964;2022-10-26T11:49:46;14.30;99.90
44817;DHT22;30529;53.570;9.964;2022-10-26T11:52:13;14.40;99.90
44817;DHT22;30529;53.570;9.964;2022-10-26T11:54:59;14.50;99.90
44817;DHT22;30529;53.570;9.964;2022-10-26T11:57:32;14.50;99.90
44817;DHT22;30529;53.570;9.964;2022-10-26T12:02:40;14.60;99.90
44817;DHT22;30529;53.570;9.964;2022-10-26T12:05:19;14.60;99.90
44817;DHT22;30529;53.570;9.964;2022-10-26T12:07:54;14.60;99.90
44817;DHT22;30529;53.570;9.964;2022-10-26T12:10:25;14.60;99.90
44817;DHT22;30529;53.570;9.964;2022-10-26T12:15:54;14.60;99.90
44817;DHT22;30529;53.570;9.964;2022-10-26T12:18:53;14.60;99.90
44817;DHT22;30529;53.570;9.964;2022-10-26T12:21:24;14.70;99.90
44817;DHT22;30529;53.570;9.964;2022-10-26T12:31:57;14.80;99.90
44817;DHT22;30529;53.570;9.964;2022-10-26T12:37:35;15.00;99.90
44817;DHT22;30529;53.570;9.964;2022-10-26T12:45:45;15.40;99.90
44817;DHT22;30529;53.570;9.964;2022-10-26T12:48:43;15.50;99.90
44817;DHT22;30529;53.570;9.964;2022-10-26T12:57:15;15.60;99.90
44817;DHT22;30529;53.570;9.964;2022-10-26T12:59:51;15.60;99.90
44817;DHT22;30529;53.570;9.964;2022-10-26T13:03:00;15.60;99.90
44817;DHT22;30529;53.570;9.964;2022-10-26T13:05:44;15.70;99.90
44817;DHT22;30529;53.570;9.964;2022-10-26T13:08:13;15.80;99.90
44817;DHT22;30529;53.570;9.964;2022-10-26T13:11:02;15.80;99.90
44817;DHT22;30529;53.570;9.964;2022-10-26T13:13:30;15.80;99.90
44817;DHT22;30529;53.570;9.964;2022-10-26T13:15:59;15.80;99.90
44817;DHT22;30529;53.570;9.964;2022-10-26T13:18:27;15.80;99.90
44817;DHT22;30529;53.570;9.964;2022-10-26T13:21:08;15.90;99.90
44817;DHT22;30529;53.570;9.964;2022-10-26T13:24:00;16.00;99.90
44817;DHT22;30529;53.570;9.964;2022-10-26T13:30:11;15.90;99.90
44817;DHT22;30529;53.570;9.964;2022-10-26T13:32:40;15.90;99.90
44817;DHT22;30529;53.570;9.964;2022-10-26T13:35:14;15.90;99.90
44817;DHT22;30529;53.570;9.964;2022-10-26T13:37:44;15.90;99.90
44817;DHT22;30529;53.570;9.964;2022-10-26T13:40:17;15.90;99.90
44817;DHT22;30529;53.570;9.964;2022-10-26T13:42:59;15.90;99.90
44817;DHT22;30529;53.570;9.964;2022-10-26T13:45:33;15.90;99.90
44817;DHT22;30529;53.570;9.964;2022-10-26T13:50:48;15.90;99.90
44817;DHT22;30529;53.570;9.964;2022-10-26T13:53:26;16.00;99.90
44817;DHT22;30529;53.570;9.964;2022-10-26T13:58:49;16.00;99.90
44817;DHT22;30529;53.570;9.964;2022-10-26T14:01:19;16.10;99.90
44817;DHT22;30529;53.570;9.964;2022-10-26T14:03:50;16.20;99.90
44817;DHT22;30529;53.570;9.964;2022-10-26T14:06:37;16.10;99.90
44817;DHT22;30529;53.570;9.964;2022-10-26T14:09:11;16.20;99.90
44817;DHT22;30529;53.570;9.964;2022-10-26T14:11:48;16.10;99.90
44817;DHT22;30529;53.570;9.964;2022-10-26T14:14:24;16.10;99.90
44817;DHT22;30529;53.570;9.964;2022-10-26T14:16:51;16.10;99.90
44817;DHT22;30529;53.570;9.964;2022-10-26T14:21:51;16.10;99.90
44817;DHT22;30529;53.570;9.964;2022-10-26T14:26:54;16.10;99.90
44817;DHT22;30529;53.570;9.964;2022-10-26T14:29:22;16.10;99.90
44817;DHT22;30529;53.570;9.964;2022-10-26T14:31:49;16.10;99.90
44817;DHT22;30529;53.570;9.964;2022-10-26T14:34:17;16.10;99.90
44817;DHT22;30529;53.570;9.964;2022-10-26T14:36:57;16.10;99.90
44817;DHT22;30529;53.570;9.964;2022-10-26T14:39:33;16.10;99.90
44817;DHT22;30529;53.570;9.964;2022-10-26T14:42:05;16.10;99.90
44817;DHT22;30529;53.570;9.964;2022-10-26T14:44:35;16.00;99.90
44817;DHT22;30529;53.570;9.964;2022-10-26T14:47:02;16.00;99.90
44817;DHT22;30529;53.570;9.964;2022-10-26T14:49:28;15.90;99.90
44817;DHT22;30529;53.570;9.964;2022-10-26T14:51:57;15.90;99.90
44817;DHT22;30529;53.570;9.964;2022-10-26T14:54:27;15.90;99.90
44817;DHT22;30529;53.570;9.964;2022-10-26T14:56:54;15.80;99.90
44817;DHT22;30529;53.570;9.964;2022-10-26T14:59:24;15.80;99.90
44817;DHT22;30529;53.570;9.964;2022-10-26T15:04:39;15.80;99.90
44817;DHT22;30529;53.570;9.964;2022-10-26T15:09:51;15.70;99.90
44817;DHT22;30529;53.570;9.964;2022-10-26T15:12:37;15.60;99.90
44817;DHT22;30529;53.570;9.964;2022-10-26T15:15:20;15.50;99.90
44817;DHT22;30529;53.570;9.964;2022-10-26T15:17:53;15.50;99.90
44817;DHT22;30529;53.570;9.964;2022-10-26T15:20:22;15.40;99.90
44817;DHT22;30529;53.570;9.964;2022-10-26T15:23:01;15.40;99.90
44817;DHT22;30529;53.570;9.964;2022-10-26T15:25:32;15.40;99.90
44817;DHT22;30529;53.570;9.964;2022-10-26T15:28:38;15.30;99.90
44817;DHT22;30529;53.570;9.964;2022-10-26T15:33:38;15.20;99.90
44817;DHT22;30529;53.570;9.964;2022-10-26T15:36:21;15.20;99.90
44817;DHT22;30529;53.570;9.964;2022-10-26T15:38:48;15.20;99.90
44817;DHT22;30529;53.570;9.964;2022-10-26T15:43:57;15.10;99.90
44817;DHT22;30529;53.570;9.964;2022-10-26T15:46:32;15.00;99.90
44817;DHT22;30529;53.570;9.964;2022-10-26T15:49:00;15.00;99.90
44817;DHT22;30529;53.570;9.964;2022-10-26T15:51:27;15.00;99.90
44817;DHT22;30529;53.570;9.964;2022-10-26T15:53:58;14.90;99.90
44817;DHT22;30529;53.570;9.964;2022-10-26T15:56:25;14.90;99.90
44817;DHT22;30529;53.570;9.964;2022-10-26T15:58:53;14.80;99.90
44817;DHT22;30529;53.570;9.964;2022-10-26T16:01:28;14.80;99.90
44817;DHT22;30529;53.570;9.964;2022-10-26T16:03:54;14.80;99.90
44817;DHT22;30529;53.570;9.964;2022-10-26T16:06:53;14.80;99.90
44817;DHT22;30529;53.570;9.964;2022-10-26T16:09:23;14.80;99.90
44817;DHT22;30529;53.570;9.964;2022-10-26T16:11:50;14.80;99.90
44817;DHT22;30529;53.570;9.964;2022-10-26T16:14:16;14.90;99.90
44817;DHT22;30529;53.570;9.964;2022-10-26T16:16:42;14.80;99.90
44817;DHT22;30529;53.570;9.964;2022-10-26T16:19:09;14.90;99.90
44817;DHT22;30529;53.570;9.964;2022-10-26T16:21:41;14.90;99.90
44817;DHT22;30529;53.570;9.964;2022-10-26T16:24:10;14.90;99.90
44817;DHT22;30529;53.570;9.964;2022-10-26T16:26:39;14.90;99.90
44817;DHT22;30529;53.570;9.964;2022-10-26T16:29:05;14.80;99.90
44817;DHT22;30529;53.570;9.964;2022-10-26T16:31:31;14.80;99.90
44817;DHT22;30529;53.570;9.964;2022-10-26T16:33:57;14.90;99.90
44817;DHT22;30529;53.570;9.964;2022-10-26T16:36:23;14.90;99.90
44817;DHT22;30529;53.570;9.964;2022-10-26T16:38:50;14.90;99.90
44817;DHT22;30529;53.570;9.964;2022-10-26T16:41:16;14.90;99.90
44817;DHT22;30529;53.570;9.964;2022-10-26T16:43:43;14.80;99.90
44817;DHT22;30529;53.570;9.964;2022-10-26T16:46:12;14.70;99.90
44817;DHT22;30529;53.570;9.964;2022-10-26T16:48:40;14.70;99.90
44817;DHT22;30529;53.570;9.964;2022-10-26T16:53:38;14.50;99.90
44817;DHT22;30529;53.570;9.964;2022-10-26T16:56:07;14.50;99.90
44817;DHT22;30529;53.570;9.964;2022-10-26T16:58:34;14.50;99.90
44817;DHT22;30529;53.570;9.964;2022-10-26T17:01:00;14.40;99.90
44817;DHT22;30529;53.570;9.964;2022-10-26T17:03:26;14.40;99.90
44817;DHT22;30529;53.570;9.964;2022-10-26T17:06:01;14.40;99.90
44817;DHT22;30529;53.570;9.964;2022-10-26T17:08:27;14.30;99.90
44817;DHT22;30529;53.570;9.964;2022-10-26T17:10:57;14.30;99.90
44817;DHT22;30529;53.570;9.964;2022-10-26T17:13:26;14.30;99.90
44817;DHT22;30529;53.570;9.964;2022-10-26T17:15:52;14.30;99.90
44817;DHT22;30529;53.570;9.964;2022-10-26T17:18:19;14.30;99.90
44817;DHT22;30529;53.570;9.964;2022-10-26T17:20:49;14.20;99.90
44817;DHT22;30529;53.570;9.964;2022-10-26T17:23:16;14.20;99.90
44817;DHT22;30529;53.570;9.964;2022-10-26T17:25:43;14.20;99.90
44817;DHT22;30529;53.570;9.964;2022-10-26T17:28:09;14.20;99.90
44817;DHT22;30529;53.570;9.964;2022-10-26T17:30:35;14.20;99.90
44817;DHT22;30529;53.570;9.964;2022-10-26T17:33:02;14.20;99.90
44817;DHT22;30529;53.570;9.964;2022-10-26T17:35:28;14.20;99.90
44817;DHT22;30529;53.570;9.964;2022-10-26T17:37:54;14.20;99.90
44817;DHT22;30529;53.570;9.964;2022-10-26T17:40:20;14.20;99.90
44817;DHT22;30529;53.570;9.964;2022-10-26T17:42:46;14.20;99.90
44817;DHT22;30529;53.570;9.964;2022-10-26T17:45:13;14.20;99.90
44817;DHT22;30529;53.570;9.964;2022-10-26T17:47:39;14.20;99.90
44817;DHT22;30529;53.570;9.964;2022-10-26T17:50:06;14.20;99.90
44817;DHT22;30529;53.570;9.964;2022-10-26T17:52:32;14.30;99.90
44817;DHT22;30529;53.570;9.964;2022-10-26T17:54:58;14.50;99.90
44817;DHT22;30529;53.570;9.964;2022-10-26T17:57:25;14.50;99.90
44817;DHT22;30529;53.570;9.964;2022-10-26T17:59:51;14.70;99.90
44817;DHT22;30529;53.570;9.964;2022-10-26T18:02:17;14.70;99.90
44817;DHT22;30529;53.570;9.964;2022-10-26T18:04:43;14.70;99.90
44817;DHT22;30529;53.570;9.964;2022-10-26T18:07:11;14.80;99.90
44817;DHT22;30529;53.570;9.964;2022-10-26T18:09:37;14.80;99.90
44817;DHT22;30529;53.570;9.964;2022-10-26T18:12:03;14.80;99.90
44817;DHT22;30529;53.570;9.964;2022-10-26T18:14:30;14.80;99.90
44817;DHT22;30529;53.570;9.964;2022-10-26T18:16:56;14.80;99.90
44817;DHT22;30529;53.570;9.964;2022-10-26T18:19:22;14.90;99.90
44817;DHT22;30529;53.570;9.964;2022-10-26T18:21:48;14.90;99.90
44817;DHT22;30529;53.570;9.964;2022-10-26T18:24:15;14.90;99.90
44817;DHT22;30529;53.570;9.964;2022-10-26T18:26:41;14.90;99.90
44817;DHT22;30529;53.570;9.964;2022-10-26T18:29:08;14.90;99.90